<?xml version="1.0" encoding="UTF-8" standalone="no" ?>
<gpx xmlns="http://www.topografix.com/GPX/1/1" xmlns:xsi="http://www.w3.org/2001/XMLSchema-instance" xsi:schemaLocation="http://www.topografix.com/GPX/1/1 http://www.topografix.com/GPX/1/1/gpx.xsd" version="1.1" creator="VisuGPX - https://www.visugpx.com">
  <metadata>
    <name>Balade à Biesme-sous-Thuin</name>
  </metadata>
  <trk>
    <name><![CDATA[Balade à Biesme-sous-Thuin]]></name>
    <trkseg>
      <trkpt lat="50.32036" lon="4.3091">
        <ele>148.018</ele>
        <time>2021-02-21T11:38:30Z</time>
      </trkpt>
      <trkpt lat="50.32113" lon="4.30904">
        <ele>152.098</ele>
        <time>2021-02-21T11:39:10Z</time>
      </trkpt>
      <trkpt lat="50.32167" lon="4.3089">
        <ele>154.017</ele>
        <time>2021-02-21T11:39:50Z</time>
      </trkpt>
      <trkpt lat="50.32187" lon="4.30904">
        <ele>156.008</ele>
        <time>2021-02-21T11:40:30Z</time>
      </trkpt>
      <trkpt lat="50.32203" lon="4.30892">
        <ele>156.025</ele>
        <time>2021-02-21T11:41:10Z</time>
      </trkpt>
      <trkpt lat="50.32218" lon="4.30872">
        <ele>158.03</ele>
        <time>2021-02-21T11:41:50Z</time>
      </trkpt>
      <trkpt lat="50.32243" lon="4.30864">
        <ele>161.011</ele>
        <time>2021-02-21T11:42:30Z</time>
      </trkpt>
      <trkpt lat="50.32253" lon="4.30858">
        <ele>161.068</ele>
        <time>2021-02-21T11:43:10Z</time>
      </trkpt>
      <trkpt lat="50.32291" lon="4.3082">
        <ele>163.04</ele>
        <time>2021-02-21T11:43:50Z</time>
      </trkpt>
      <trkpt lat="50.32331" lon="4.30771">
        <ele>165.073</ele>
        <time>2021-02-21T11:44:30Z</time>
      </trkpt>
      <trkpt lat="50.32387" lon="4.30735">
        <ele>166.072</ele>
        <time>2021-02-21T11:45:10Z</time>
      </trkpt>
      <trkpt lat="50.32401" lon="4.30727">
        <ele>166.025</ele>
        <time>2021-02-21T11:45:50Z</time>
      </trkpt>
      <trkpt lat="50.32424" lon="4.30729">
        <ele>167.018</ele>
        <time>2021-02-21T11:46:30Z</time>
      </trkpt>
      <trkpt lat="50.32404" lon="4.30675">
        <ele>165.098</ele>
        <time>2021-02-21T11:47:10Z</time>
      </trkpt>
      <trkpt lat="50.32528" lon="4.30626">
        <ele>161.017</ele>
        <time>2021-02-21T11:47:50Z</time>
      </trkpt>
      <trkpt lat="50.32625" lon="4.30597">
        <ele>167.008</ele>
        <time>2021-02-21T11:48:30Z</time>
      </trkpt>
      <trkpt lat="50.32605" lon="4.30562">
        <ele>163.035</ele>
        <time>2021-02-21T11:49:10Z</time>
      </trkpt>
      <trkpt lat="50.32573" lon="4.30516">
        <ele>158.08</ele>
        <time>2021-02-21T11:49:50Z</time>
      </trkpt>
      <trkpt lat="50.32565" lon="4.30502">
        <ele>154.061</ele>
        <time>2021-02-21T11:50:30Z</time>
      </trkpt>
      <trkpt lat="50.32566" lon="4.30484">
        <ele>150.068</ele>
        <time>2021-02-21T11:51:10Z</time>
      </trkpt>
      <trkpt lat="50.32575" lon="4.3047">
        <ele>151.05</ele>
        <time>2021-02-21T11:51:50Z</time>
      </trkpt>
      <trkpt lat="50.32601" lon="4.30452">
        <ele>148.013</ele>
        <time>2021-02-21T11:52:30Z</time>
      </trkpt>
      <trkpt lat="50.32695" lon="4.30411">
        <ele>156.072</ele>
        <time>2021-02-21T11:53:10Z</time>
      </trkpt>
      <trkpt lat="50.32714" lon="4.30396">
        <ele>161.095</ele>
        <time>2021-02-21T11:53:50Z</time>
      </trkpt>
      <trkpt lat="50.32725" lon="4.30373">
        <ele>162.075</ele>
        <time>2021-02-21T11:54:30Z</time>
      </trkpt>
      <trkpt lat="50.32721" lon="4.30348">
        <ele>162.028</ele>
        <time>2021-02-21T11:55:10Z</time>
      </trkpt>
      <trkpt lat="50.32663" lon="4.30207">
        <ele>151.02</ele>
        <time>2021-02-21T11:55:50Z</time>
      </trkpt>
      <trkpt lat="50.32652" lon="4.30167">
        <ele>144.008</ele>
        <time>2021-02-21T11:56:30Z</time>
      </trkpt>
      <trkpt lat="50.32654" lon="4.30146">
        <ele>150.061</ele>
        <time>2021-02-21T11:57:10Z</time>
      </trkpt>
      <trkpt lat="50.32677" lon="4.30055">
        <ele>142.026</ele>
        <time>2021-02-21T11:57:50Z</time>
      </trkpt>
      <trkpt lat="50.32711" lon="4.29987">
        <ele>143.047</ele>
        <time>2021-02-21T11:58:30Z</time>
      </trkpt>
      <trkpt lat="50.32751" lon="4.2995">
        <ele>141.064</ele>
        <time>2021-02-21T11:59:10Z</time>
      </trkpt>
      <trkpt lat="50.32809" lon="4.29925">
        <ele>145.036</ele>
        <time>2021-02-21T11:59:50Z</time>
      </trkpt>
      <trkpt lat="50.32907" lon="4.29903">
        <ele>146.069</ele>
        <time>2021-02-21T12:00:30Z</time>
      </trkpt>
      <trkpt lat="50.32978" lon="4.29893">
        <ele>143.038</ele>
        <time>2021-02-21T12:01:10Z</time>
      </trkpt>
      <trkpt lat="50.33007" lon="4.29861">
        <ele>143.051</ele>
        <time>2021-02-21T12:01:50Z</time>
      </trkpt>
      <trkpt lat="50.33043" lon="4.29803">
        <ele>144.044</ele>
        <time>2021-02-21T12:02:30Z</time>
      </trkpt>
      <trkpt lat="50.3306" lon="4.29756">
        <ele>140.005</ele>
        <time>2021-02-21T12:03:10Z</time>
      </trkpt>
      <trkpt lat="50.33065" lon="4.29725">
        <ele>134.015</ele>
        <time>2021-02-21T12:03:50Z</time>
      </trkpt>
      <trkpt lat="50.33064" lon="4.29717">
        <ele>134.008</ele>
        <time>2021-02-21T12:04:30Z</time>
      </trkpt>
      <trkpt lat="50.33077" lon="4.29715">
        <ele>139.018</ele>
        <time>2021-02-21T12:05:10Z</time>
      </trkpt>
      <trkpt lat="50.33112" lon="4.29741">
        <ele>142.083</ele>
        <time>2021-02-21T12:05:50Z</time>
      </trkpt>
      <trkpt lat="50.33153" lon="4.298">
        <ele>155.054</ele>
        <time>2021-02-21T12:06:30Z</time>
      </trkpt>
      <trkpt lat="50.33199" lon="4.2986">
        <ele>169.081</ele>
        <time>2021-02-21T12:07:10Z</time>
      </trkpt>
      <trkpt lat="50.33231" lon="4.29854">
        <ele>170.073</ele>
        <time>2021-02-21T12:07:50Z</time>
      </trkpt>
      <trkpt lat="50.33275" lon="4.29866">
        <ele>173.036</ele>
        <time>2021-02-21T12:08:30Z</time>
      </trkpt>
      <trkpt lat="50.33296" lon="4.29865">
        <ele>176.095</ele>
        <time>2021-02-21T12:09:10Z</time>
      </trkpt>
      <trkpt lat="50.33325" lon="4.29857">
        <ele>177.068</ele>
        <time>2021-02-21T12:09:50Z</time>
      </trkpt>
      <trkpt lat="50.3334" lon="4.29846">
        <ele>175.012</ele>
        <time>2021-02-21T12:10:30Z</time>
      </trkpt>
      <trkpt lat="50.33356" lon="4.29813">
        <ele>174.032</ele>
        <time>2021-02-21T12:11:10Z</time>
      </trkpt>
      <trkpt lat="50.33377" lon="4.29746">
        <ele>174.005</ele>
        <time>2021-02-21T12:11:50Z</time>
      </trkpt>
      <trkpt lat="50.33388" lon="4.29668">
        <ele>178.008</ele>
        <time>2021-02-21T12:12:30Z</time>
      </trkpt>
      <trkpt lat="50.33384" lon="4.29626">
        <ele>175.035</ele>
        <time>2021-02-21T12:13:10Z</time>
      </trkpt>
      <trkpt lat="50.33378" lon="4.29595">
        <ele>177.02</ele>
        <time>2021-02-21T12:13:50Z</time>
      </trkpt>
      <trkpt lat="50.33376" lon="4.29538">
        <ele>177.011</ele>
        <time>2021-02-21T12:14:30Z</time>
      </trkpt>
      <trkpt lat="50.33372" lon="4.29277">
        <ele>182.098</ele>
        <time>2021-02-21T12:15:10Z</time>
      </trkpt>
      <trkpt lat="50.33371" lon="4.29183">
        <ele>182.02</ele>
        <time>2021-02-21T12:15:50Z</time>
      </trkpt>
      <trkpt lat="50.3337" lon="4.29107">
        <ele>184.043</ele>
        <time>2021-02-21T12:16:30Z</time>
      </trkpt>
      <trkpt lat="50.33374" lon="4.2909">
        <ele>182.072</ele>
        <time>2021-02-21T12:17:10Z</time>
      </trkpt>
      <trkpt lat="50.33405" lon="4.29011">
        <ele>170.045</ele>
        <time>2021-02-21T12:17:50Z</time>
      </trkpt>
      <trkpt lat="50.33414" lon="4.29002">
        <ele>170.011</ele>
        <time>2021-02-21T12:18:30Z</time>
      </trkpt>
      <trkpt lat="50.33421" lon="4.28987">
        <ele>170.021</ele>
        <time>2021-02-21T12:19:10Z</time>
      </trkpt>
      <trkpt lat="50.33405" lon="4.28974">
        <ele>160.003</ele>
        <time>2021-02-21T12:19:50Z</time>
      </trkpt>
      <trkpt lat="50.33362" lon="4.28951">
        <ele>171.008</ele>
        <time>2021-02-21T12:20:30Z</time>
      </trkpt>
      <trkpt lat="50.33344" lon="4.2893">
        <ele>164.085</ele>
        <time>2021-02-21T12:21:10Z</time>
      </trkpt>
      <trkpt lat="50.33324" lon="4.28922">
        <ele>164.04</ele>
        <time>2021-02-21T12:21:50Z</time>
      </trkpt>
      <trkpt lat="50.33289" lon="4.2891">
        <ele>165.021</ele>
        <time>2021-02-21T12:22:30Z</time>
      </trkpt>
      <trkpt lat="50.33262" lon="4.28889">
        <ele>160.068</ele>
        <time>2021-02-21T12:23:10Z</time>
      </trkpt>
      <trkpt lat="50.33248" lon="4.28869">
        <ele>154.01</ele>
        <time>2021-02-21T12:23:50Z</time>
      </trkpt>
      <trkpt lat="50.33237" lon="4.28866">
        <ele>154.043</ele>
        <time>2021-02-21T12:24:30Z</time>
      </trkpt>
      <trkpt lat="50.33224" lon="4.28866">
        <ele>152.032</ele>
        <time>2021-02-21T12:25:10Z</time>
      </trkpt>
      <trkpt lat="50.33196" lon="4.28903">
        <ele>157.025</ele>
        <time>2021-02-21T12:25:50Z</time>
      </trkpt>
      <trkpt lat="50.33182" lon="4.28912">
        <ele>157.078</ele>
        <time>2021-02-21T12:26:30Z</time>
      </trkpt>
      <trkpt lat="50.33166" lon="4.28974">
        <ele>157.033</ele>
        <time>2021-02-21T12:27:10Z</time>
      </trkpt>
      <trkpt lat="50.33147" lon="4.29053">
        <ele>160.026</ele>
        <time>2021-02-21T12:27:50Z</time>
      </trkpt>
      <trkpt lat="50.33127" lon="4.2913">
        <ele>163.008</ele>
        <time>2021-02-21T12:28:30Z</time>
      </trkpt>
      <trkpt lat="50.33109" lon="4.29177">
        <ele>163.021</ele>
        <time>2021-02-21T12:29:10Z</time>
      </trkpt>
      <trkpt lat="50.33107" lon="4.29189">
        <ele>159.016</ele>
        <time>2021-02-21T12:29:50Z</time>
      </trkpt>
      <trkpt lat="50.33135" lon="4.29191">
        <ele>160.017</ele>
        <time>2021-02-21T12:30:30Z</time>
      </trkpt>
      <trkpt lat="50.33225" lon="4.29184">
        <ele>165.014</ele>
        <time>2021-02-21T12:31:10Z</time>
      </trkpt>
      <trkpt lat="50.33225" lon="4.29196">
        <ele>165.016</ele>
        <time>2021-02-21T12:31:50Z</time>
      </trkpt>
      <trkpt lat="50.3322" lon="4.29208">
        <ele>165.079</ele>
        <time>2021-02-21T12:32:30Z</time>
      </trkpt>
      <trkpt lat="50.33213" lon="4.29216">
        <ele>161.028</ele>
        <time>2021-02-21T12:33:10Z</time>
      </trkpt>
      <trkpt lat="50.33195" lon="4.29222">
        <ele>159.081</ele>
        <time>2021-02-21T12:33:50Z</time>
      </trkpt>
      <trkpt lat="50.33183" lon="4.29217">
        <ele>159.037</ele>
        <time>2021-02-21T12:34:30Z</time>
      </trkpt>
      <trkpt lat="50.33157" lon="4.29229">
        <ele>157.049</ele>
        <time>2021-02-21T12:35:10Z</time>
      </trkpt>
      <trkpt lat="50.33134" lon="4.29244">
        <ele>150.013</ele>
        <time>2021-02-21T12:35:50Z</time>
      </trkpt>
      <trkpt lat="50.33128" lon="4.29264">
        <ele>142.008</ele>
        <time>2021-02-21T12:36:30Z</time>
      </trkpt>
      <trkpt lat="50.33114" lon="4.29273">
        <ele>144.027</ele>
        <time>2021-02-21T12:37:10Z</time>
      </trkpt>
      <trkpt lat="50.33101" lon="4.29286">
        <ele>144.022</ele>
        <time>2021-02-21T12:37:50Z</time>
      </trkpt>
      <trkpt lat="50.33094" lon="4.29303">
        <ele>140.023</ele>
        <time>2021-02-21T12:38:30Z</time>
      </trkpt>
      <trkpt lat="50.33084" lon="4.29302">
        <ele>140.04</ele>
        <time>2021-02-21T12:39:10Z</time>
      </trkpt>
      <trkpt lat="50.33074" lon="4.2931">
        <ele>140.072</ele>
        <time>2021-02-21T12:39:50Z</time>
      </trkpt>
      <trkpt lat="50.33049" lon="4.29308">
        <ele>139.085</ele>
        <time>2021-02-21T12:40:30Z</time>
      </trkpt>
      <trkpt lat="50.33041" lon="4.29312">
        <ele>137.074</ele>
        <time>2021-02-21T12:41:10Z</time>
      </trkpt>
      <trkpt lat="50.33038" lon="4.29325">
        <ele>136.067</ele>
        <time>2021-02-21T12:41:50Z</time>
      </trkpt>
      <trkpt lat="50.33045" lon="4.29331">
        <ele>135.022</ele>
        <time>2021-02-21T12:42:30Z</time>
      </trkpt>
      <trkpt lat="50.33064" lon="4.29327">
        <ele>135.062</ele>
        <time>2021-02-21T12:43:10Z</time>
      </trkpt>
      <trkpt lat="50.33076" lon="4.29331">
        <ele>135.008</ele>
        <time>2021-02-21T12:43:50Z</time>
      </trkpt>
      <trkpt lat="50.3309" lon="4.29328">
        <ele>135.008</ele>
        <time>2021-02-21T12:44:30Z</time>
      </trkpt>
      <trkpt lat="50.33087" lon="4.29353">
        <ele>134.036</ele>
        <time>2021-02-21T12:45:10Z</time>
      </trkpt>
      <trkpt lat="50.33097" lon="4.29354">
        <ele>134.031</ele>
        <time>2021-02-21T12:45:50Z</time>
      </trkpt>
      <trkpt lat="50.33101" lon="4.29371">
        <ele>133.012</ele>
        <time>2021-02-21T12:46:30Z</time>
      </trkpt>
      <trkpt lat="50.33078" lon="4.29382">
        <ele>134.049</ele>
        <time>2021-02-21T12:47:10Z</time>
      </trkpt>
      <trkpt lat="50.33042" lon="4.29369">
        <ele>136.081</ele>
        <time>2021-02-21T12:47:50Z</time>
      </trkpt>
      <trkpt lat="50.33018" lon="4.29362">
        <ele>137.034</ele>
        <time>2021-02-21T12:48:30Z</time>
      </trkpt>
      <trkpt lat="50.33012" lon="4.29372">
        <ele>140.013</ele>
        <time>2021-02-21T12:49:10Z</time>
      </trkpt>
      <trkpt lat="50.32996" lon="4.29364">
        <ele>140.096</ele>
        <time>2021-02-21T12:49:50Z</time>
      </trkpt>
      <trkpt lat="50.32979" lon="4.2943">
        <ele>150.043</ele>
        <time>2021-02-21T12:50:30Z</time>
      </trkpt>
      <trkpt lat="50.32925" lon="4.29627">
        <ele>137.064</ele>
        <time>2021-02-21T12:51:10Z</time>
      </trkpt>
      <trkpt lat="50.32886" lon="4.29699">
        <ele>138.01</ele>
        <time>2021-02-21T12:51:50Z</time>
      </trkpt>
      <trkpt lat="50.32854" lon="4.29761">
        <ele>142.008</ele>
        <time>2021-02-21T12:52:30Z</time>
      </trkpt>
      <trkpt lat="50.32785" lon="4.29843">
        <ele>149.048</ele>
        <time>2021-02-21T12:53:10Z</time>
      </trkpt>
      <trkpt lat="50.32479" lon="4.30105">
        <ele>142.033</ele>
        <time>2021-02-21T12:53:50Z</time>
      </trkpt>
      <trkpt lat="50.32184" lon="4.30359">
        <ele>137.014</ele>
        <time>2021-02-21T12:54:30Z</time>
      </trkpt>
      <trkpt lat="50.32095" lon="4.30436">
        <ele>141.041</ele>
        <time>2021-02-21T12:55:10Z</time>
      </trkpt>
      <trkpt lat="50.31983" lon="4.30531">
        <ele>138.043</ele>
        <time>2021-02-21T12:55:50Z</time>
      </trkpt>
      <trkpt lat="50.31897" lon="4.30638">
        <ele>137.046</ele>
        <time>2021-02-21T12:56:30Z</time>
      </trkpt>
      <trkpt lat="50.31816" lon="4.3076">
        <ele>139.055</ele>
        <time>2021-02-21T12:57:10Z</time>
      </trkpt>
      <trkpt lat="50.31829" lon="4.30772">
        <ele>139.058</ele>
        <time>2021-02-21T12:57:50Z</time>
      </trkpt>
      <trkpt lat="50.31839" lon="4.3077">
        <ele>139.071</ele>
        <time>2021-02-21T12:58:30Z</time>
      </trkpt>
      <trkpt lat="50.31856" lon="4.3075">
        <ele>137.041</ele>
        <time>2021-02-21T12:59:10Z</time>
      </trkpt>
      <trkpt lat="50.31875" lon="4.3074">
        <ele>137.015</ele>
        <time>2021-02-21T12:59:50Z</time>
      </trkpt>
      <trkpt lat="50.31886" lon="4.30727">
        <ele>137.008</ele>
        <time>2021-02-21T13:00:30Z</time>
      </trkpt>
      <trkpt lat="50.31909" lon="4.30674">
        <ele>137.091</ele>
        <time>2021-02-21T13:01:10Z</time>
      </trkpt>
      <trkpt lat="50.31925" lon="4.30708">
        <ele>137.036</ele>
        <time>2021-02-21T13:01:50Z</time>
      </trkpt>
      <trkpt lat="50.3193" lon="4.30727">
        <ele>137.017</ele>
        <time>2021-02-21T13:02:30Z</time>
      </trkpt>
      <trkpt lat="50.3194" lon="4.30723">
        <ele>138.054</ele>
        <time>2021-02-21T13:03:10Z</time>
      </trkpt>
      <trkpt lat="50.31956" lon="4.30738">
        <ele>138.046</ele>
        <time>2021-02-21T13:03:50Z</time>
      </trkpt>
      <trkpt lat="50.31979" lon="4.3078">
        <ele>140.069</ele>
        <time>2021-02-21T13:04:30Z</time>
      </trkpt>
      <trkpt lat="50.32007" lon="4.30811">
        <ele>142.018</ele>
        <time>2021-02-21T13:05:10Z</time>
      </trkpt>
      <trkpt lat="50.32016" lon="4.30843">
        <ele>148.071</ele>
        <time>2021-02-21T13:05:50Z</time>
      </trkpt>
      <trkpt lat="50.32017" lon="4.30871">
        <ele>147.074</ele>
        <time>2021-02-21T13:06:30Z</time>
      </trkpt>
      <trkpt lat="50.32021" lon="4.30906">
        <ele>148.056</ele>
        <time>2021-02-21T13:07:10Z</time>
      </trkpt>
    </trkseg>
  </trk>
</gpx>